Time;durP1;ratioP1;P1;durP2;ratioP2;P2;SDS_P1;SDS_P2;PMS_P1;PMS_P2;Temp;Humidity;BMP_temperature;BMP_pressure;BME280_temperature;BME280_humidity;BME280_pressure;Samples;Min_cycle;Max_cycle;Signal;HPM_P1;HPM_P2
2022/07/15 00:02:15;;;;;;;;;;;11.40;99.90;;;;;;5105035;27;19973;-53
2022/07/15 00:04:55;;;;;;;;;;;11.30;99.90;;;;;;5125616;27;19912;-54
2022/07/15 00:07:35;;;;;;;;;;;11.30;99.90;;;;;;5123992;27;20393;-52
2022/07/15 00:10:20;;;;;;;;;;;11.30;99.90;;;;;;5125594;27;19911;-53
2022/07/15 00:13:01;;;;;;;;;;;11.30;99.90;;;;;;5084664;28;20320;-53
2022/07/15 00:15:42;;;;;;;;;;;11.40;99.90;;;;;;5104681;27;19950;-53
2022/07/15 00:18:23;;;;;;;;;;;11.30;99.90;;;;;;5104733;27;20289;-56
2022/07/15 00:21:03;;;;;;;;;;;11.20;99.90;;;;;;5125592;27;19922;-55
2022/07/15 00:23:43;;;;;;;;;;;11.10;99.90;;;;;;5125742;27;20051;-53
2022/07/15 00:26:23;;;;;;;;;;;11.00;99.90;;;;;;5116459;27;19912;-53
2022/07/15 00:29:03;;;;;;;;;;;10.90;99.90;;;;;;5105180;27;20187;-52
2022/07/15 00:31:43;;;;;;;;;;;10.90;99.90;;;;;;5125654;27;20320;-53
2022/07/15 00:34:22;;;;;;;;;;;10.90;99.90;;;;;;5105458;27;19926;-53
2022/07/15 00:37:04;;;;;;;;;;;10.90;99.90;;;;;;5125147;27;19916;-54
2022/07/15 00:39:45;;;;;;;;;;;10.80;99.90;;;;;;5126079;27;19926;-53
2022/07/15 00:45:23;;;;;;;;;;;10.80;99.90;;;;;;5084683;28;19962;-53
2022/07/15 00:48:04;;;;;;;;;;;10.70;99.90;;;;;;5105029;27;19927;-53
2022/07/15 00:50:45;;;;;;;;;;;10.50;99.90;;;;;;5125747;27;19945;-54
2022/07/15 00:53:27;;;;;;;;;;;10.50;99.90;;;;;;5125464;27;20440;-54
2022/07/15 00:56:09;;;;;;;;;;;10.50;99.90;;;;;;5118850;27;19946;-53
2022/07/15 00:58:50;;;;;;;;;;;10.50;99.90;;;;;;5104951;27;19916;-52
2022/07/15 01:01:31;;;;;;;;;;;10.50;99.90;;;;;;5125404;27;19911;-55
2022/07/15 01:04:12;;;;;;;;;;;10.40;99.90;;;;;;5126181;27;19926;-53
2022/07/15 01:06:54;;;;;;;;;;;10.30;99.90;;;;;;5104129;27;19912;-52
2022/07/15 01:09:34;;;;;;;;;;;10.40;99.90;;;;;;5125589;27;20144;-53
2022/07/15 01:12:15;;;;;;;;;;;10.30;99.90;;;;;;5125626;27;19916;-53
2022/07/15 01:14:57;;;;;;;;;;;10.40;99.90;;;;;;5120928;27;19916;-56
2022/07/15 01:17:38;;;;;;;;;;;10.40;99.90;;;;;;5083892;27;21457;-55
2022/07/15 01:20:22;;;;;;;;;;;10.50;99.90;;;;;;5119358;27;20323;-52
2022/07/15 01:23:09;;;;;;;;;;;10.50;99.90;;;;;;5092729;27;20370;-52
2022/07/15 01:26:05;;;;;;;;;;;10.50;99.90;;;;;;5143215;27;20275;-54
2022/07/15 01:28:46;;;;;;;;;;;10.70;99.90;;;;;;5123843;27;19915;-53
2022/07/15 01:31:28;;;;;;;;;;;10.60;99.90;;;;;;5123886;27;20295;-55
2022/07/15 01:34:09;;;;;;;;;;;10.50;99.90;;;;;;5146114;27;19912;-52
2022/07/15 01:36:50;;;;;;;;;;;10.60;99.90;;;;;;5120457;27;19916;-54
2022/07/15 01:39:30;;;;;;;;;;;10.50;99.90;;;;;;5083536;27;19912;-53
2022/07/15 01:42:12;;;;;;;;;;;10.50;99.90;;;;;;5125327;27;19934;-54
2022/07/15 01:44:51;;;;;;;;;;;10.50;99.90;;;;;;5084317;28;19912;-53
2022/07/15 01:47:32;;;;;;;;;;;10.50;99.90;;;;;;5124445;27;19912;-55
2022/07/15 01:50:14;;;;;;;;;;;10.30;99.90;;;;;;5104915;27;20439;-53
2022/07/15 01:53:09;;;;;;;;;;;10.20;99.90;;;;;;5104967;27;20323;-55
2022/07/15 01:55:48;;;;;;;;;;;10.20;99.90;;;;;;5121395;27;20726;-55
2022/07/15 01:58:30;;;;;;;;;;;10.20;99.90;;;;;;5125191;27;19912;-52
2022/07/15 02:01:12;;;;;;;;;;;10.10;99.90;;;;;;5125550;27;19916;-53
2022/07/15 02:03:53;;;;;;;;;;;9.90;99.90;;;;;;5125993;27;19916;-55
2022/07/15 02:06:33;;;;;;;;;;;9.90;99.90;;;;;;5094690;27;19918;-53
2022/07/15 02:09:13;;;;;;;;;;;9.90;99.90;;;;;;5131429;27;20428;-53
2022/07/15 02:11:57;;;;;;;;;;;9.90;99.90;;;;;;5125853;27;19912;-53
2022/07/15 02:14:40;;;;;;;;;;;9.70;99.90;;;;;;5125639;27;19916;-55
2022/07/15 02:17:21;;;;;;;;;;;9.80;99.90;;;;;;5124029;27;19922;-53
2022/07/15 02:20:04;;;;;;;;;;;9.60;99.90;;;;;;5125937;27;19915;-52
2022/07/15 02:22:44;;;;;;;;;;;9.50;99.90;;;;;;5105308;27;20217;-55
2022/07/15 02:25:25;;;;;;;;;;;9.40;99.90;;;;;;5125372;27;20401;-53
2022/07/15 02:28:07;;;;;;;;;;;9.30;99.90;;;;;;5124862;27;19911;-53
2022/07/15 02:30:47;;;;;;;;;;;9.30;99.90;;;;;;5105121;27;19926;-52
2022/07/15 02:33:27;;;;;;;;;;;9.30;99.90;;;;;;5125503;27;19912;-55
2022/07/15 02:36:07;;;;;;;;;;;9.20;99.90;;;;;;5119012;27;19912;-55
2022/07/15 02:38:48;;;;;;;;;;;9.20;99.90;;;;;;5125156;27;20373;-53
2022/07/15 02:41:29;;;;;;;;;;;9.20;99.90;;;;;;5105353;27;19961;-53
2022/07/15 02:44:14;;;;;;;;;;;9.30;99.90;;;;;;5125225;27;20369;-54
2022/07/15 02:46:57;;;;;;;;;;;9.30;99.90;;;;;;5124947;27;19911;-53
2022/07/15 02:49:42;;;;;;;;;;;9.20;99.90;;;;;;5125652;27;19915;-56
2022/07/15 02:52:22;;;;;;;;;;;9.10;99.90;;;;;;5105629;27;19916;-53
2022/07/15 02:55:03;;;;;;;;;;;9.20;99.90;;;;;;5105370;27;19926;-53
2022/07/15 02:57:45;;;;;;;;;;;9.20;99.90;;;;;;5104322;27;19961;-54
2022/07/15 03:00:24;;;;;;;;;;;9.20;99.90;;;;;;5126205;27;19916;-53
2022/07/15 03:03:10;;;;;;;;;;;9.30;99.90;;;;;;5105415;27;19960;-53
2022/07/15 03:05:54;;;;;;;;;;;9.20;99.90;;;;;;5125338;27;19916;-53
2022/07/15 03:08:35;;;;;;;;;;;9.20;99.90;;;;;;5124898;27;20282;-54
2022/07/15 03:11:15;;;;;;;;;;;9.20;99.90;;;;;;5105006;27;19926;-54
2022/07/15 03:13:55;;;;;;;;;;;9.20;99.90;;;;;;5125438;27;19918;-54
2022/07/15 03:16:34;;;;;;;;;;;9.10;99.90;;;;;;5094373;27;20253;-52
2022/07/15 03:19:14;;;;;;;;;;;8.90;99.90;;;;;;5104804;27;19949;-55
2022/07/15 03:21:59;;;;;;;;;;;8.90;99.90;;;;;;5125759;27;19933;-56
2022/07/15 03:24:43;;;;;;;;;;;9.10;99.90;;;;;;5125182;27;19912;-53
2022/07/15 03:27:23;;;;;;;;;;;9.00;99.90;;;;;;5107795;27;19912;-53
2022/07/15 03:30:05;;;;;;;;;;;8.90;99.90;;;;;;5125509;27;20384;-56
2022/07/15 03:32:46;;;;;;;;;;;9.00;99.90;;;;;;5105136;27;19912;-53
2022/07/15 03:35:26;;;;;;;;;;;9.00;99.90;;;;;;5125211;27;19912;-52
2022/07/15 03:38:06;;;;;;;;;;;9.00;99.90;;;;;;5101554;27;19949;-54
2022/07/15 03:40:46;;;;;;;;;;;9.00;99.90;;;;;;5125344;27;20411;-53
2022/07/15 03:43:29;;;;;;;;;;;9.00;99.90;;;;;;5125318;27;19915;-55
2022/07/15 03:46:09;;;;;;;;;;;9.00;99.90;;;;;;5118219;27;19912;-52
2022/07/15 03:48:50;;;;;;;;;;;9.00;99.90;;;;;;5109294;27;20323;-53
2022/07/15 03:51:30;;;;;;;;;;;9.10;99.90;;;;;;5125915;27;20369;-55
2022/07/15 03:54:11;;;;;;;;;;;9.10;99.90;;;;;;5125938;27;19918;-52
2022/07/15 03:56:51;;;;;;;;;;;9.10;99.90;;;;;;5092460;27;20324;-53
2022/07/15 03:59:32;;;;;;;;;;;9.30;99.90;;;;;;5105146;27;19926;-54
2022/07/15 04:02:12;;;;;;;;;;;9.30;99.90;;;;;;5125860;27;19918;-53
2022/07/15 04:04:52;;;;;;;;;;;9.40;99.90;;;;;;5105433;27;20008;-55
2022/07/15 04:07:32;;;;;;;;;;;9.50;99.90;;;;;;5086843;27;19913;-52
2022/07/15 04:10:12;;;;;;;;;;;9.60;99.90;;;;;;5105441;27;19926;-52
2022/07/15 04:12:52;;;;;;;;;;;9.60;99.90;;;;;;5105094;27;19912;-54
2022/07/15 04:15:31;;;;;;;;;;;9.70;99.90;;;;;;5124981;27;19911;-53
2022/07/15 04:18:13;;;;;;;;;;;9.70;99.90;;;;;;5104662;27;19926;-55
2022/07/15 04:20:53;;;;;;;;;;;9.70;99.90;;;;;;5137243;27;19916;-56
2022/07/15 04:23:33;;;;;;;;;;;9.90;99.90;;;;;;5124838;27;19920;-53
2022/07/15 04:26:12;;;;;;;;;;;10.40;99.90;;;;;;5097661;27;19950;-54
2022/07/15 04:28:52;;;;;;;;;;;11.10;99.90;;;;;;5125433;27;19916;-52
2022/07/15 04:31:37;;;;;;;;;;;11.20;99.90;;;;;;5124731;27;19945;-53
2022/07/15 04:34:26;;;;;;;;;;;11.10;99.90;;;;;;5104562;27;19958;-52
2022/07/15 04:37:06;;;;;;;;;;;10.90;99.90;;;;;;5089341;27;19920;-53
2022/07/15 04:39:47;;;;;;;;;;;11.00;99.90;;;;;;5125584;27;19927;-54
2022/07/15 04:42:28;;;;;;;;;;;11.00;99.90;;;;;;5125332;27;19911;-54
2022/07/15 04:45:08;;;;;;;;;;;11.20;99.90;;;;;;5125193;27;20324;-54
2022/07/15 04:47:49;;;;;;;;;;;11.40;99.90;;;;;;5093305;27;20124;-54
2022/07/15 04:50:51;;;;;;;;;;;11.60;99.90;;;;;;5123972;27;19938;-53
2022/07/15 04:53:32;;;;;;;;;;;11.50;99.90;;;;;;5083060;28;19917;-53
2022/07/15 04:56:12;;;;;;;;;;;11.50;99.90;;;;;;5116212;27;19924;-53
2022/07/15 04:58:52;;;;;;;;;;;11.60;99.90;;;;;;5123961;27;19912;-54
2022/07/15 05:01:32;;;;;;;;;;;11.90;99.90;;;;;;5124328;27;19916;-54
2022/07/15 05:04:12;;;;;;;;;;;12.00;99.90;;;;;;5124454;27;20312;-51
2022/07/15 05:06:51;;;;;;;;;;;12.10;99.90;;;;;;5123022;27;19965;-52
2022/07/15 05:09:33;;;;;;;;;;;12.00;99.90;;;;;;5103233;27;19969;-53
2022/07/15 05:12:14;;;;;;;;;;;12.10;99.90;;;;;;5122777;27;19912;-55
2022/07/15 05:15:02;;;;;;;;;;;12.80;99.90;;;;;;5125035;27;19913;-52
2022/07/15 05:17:42;;;;;;;;;;;13.40;99.90;;;;;;5118873;27;19912;-52
2022/07/15 05:20:28;;;;;;;;;;;14.10;99.90;;;;;;5125898;27;19911;-52
2022/07/15 05:23:08;;;;;;;;;;;14.50;99.90;;;;;;5125624;27;19912;-53
2022/07/15 05:25:53;;;;;;;;;;;15.00;99.90;;;;;;5120737;27;19916;-53
2022/07/15 05:28:32;;;;;;;;;;;15.90;99.90;;;;;;5125145;27;19912;-52
2022/07/15 05:31:12;;;;;;;;;;;16.90;99.90;;;;;;5125410;27;20377;-52
2022/07/15 05:33:53;;;;;;;;;;;17.80;99.90;;;;;;5105014;27;19916;-52
2022/07/15 05:36:33;;;;;;;;;;;18.20;99.90;;;;;;5124894;27;19912;-52
2022/07/15 05:39:13;;;;;;;;;;;17.90;99.90;;;;;;5125481;27;20380;-52
2022/07/15 05:41:58;;;;;;;;;;;17.20;99.90;;;;;;5105300;27;19934;-51
2022/07/15 05:44:41;;;;;;;;;;;16.60;99.90;;;;;;5126033;27;19931;-52
2022/07/15 05:47:21;;;;;;;;;;;16.30;99.90;;;;;;5113497;27;19912;-51
2022/07/15 05:50:02;;;;;;;;;;;16.30;99.90;;;;;;5084950;28;19930;-54
2022/07/15 05:52:45;;;;;;;;;;;15.90;99.90;;;;;;5125678;27;20312;-54
2022/07/15 05:55:25;;;;;;;;;;;15.80;99.90;;;;;;5125109;27;20377;-53
2022/07/15 05:58:07;;;;;;;;;;;15.80;99.90;;;;;;5124663;27;19918;-52
2022/07/15 06:00:49;;;;;;;;;;;15.60;99.90;;;;;;5125659;27;20365;-52
2022/07/15 06:03:29;;;;;;;;;;;15.60;99.90;;;;;;5125464;27;19911;-51
2022/07/15 06:06:09;;;;;;;;;;;15.80;99.90;;;;;;5118305;27;20271;-52
2022/07/15 06:08:51;;;;;;;;;;;15.90;99.90;;;;;;5146249;27;19911;-53
2022/07/15 06:11:30;;;;;;;;;;;15.80;99.90;;;;;;5125366;27;19912;-53
2022/07/15 06:14:13;;;;;;;;;;;15.80;99.90;;;;;;5125501;27;19912;-52
2022/07/15 06:16:53;;;;;;;;;;;15.80;99.90;;;;;;5114895;27;19912;-54
2022/07/15 06:19:35;;;;;;;;;;;15.90;99.90;;;;;;5105167;27;19961;-52
2022/07/15 06:22:15;;;;;;;;;;;15.70;99.90;;;;;;5104961;27;19916;-53
2022/07/15 06:24:54;;;;;;;;;;;15.60;99.90;;;;;;5124929;27;19916;-55
2022/07/15 06:27:34;;;;;;;;;;;15.70;99.90;;;;;;5106055;27;20333;-52
2022/07/15 06:30:14;;;;;;;;;;;15.90;99.90;;;;;;5125258;27;19912;-54
2022/07/15 06:32:58;;;;;;;;;;;15.80;99.90;;;;;;5084782;28;19913;-52
2022/07/15 06:35:40;;;;;;;;;;;15.80;99.90;;;;;;5124962;27;20380;-54
2022/07/15 06:38:21;;;;;;;;;;;15.80;99.90;;;;;;5125493;27;19912;-52
2022/07/15 06:41:13;;;;;;;;;;;16.00;99.90;;;;;;5125906;27;19911;-53
2022/07/15 06:43:53;;;;;;;;;;;16.10;99.90;;;;;;5104873;27;20339;-52
2022/07/15 06:46:49;;;;;;;;;;;16.20;99.90;;;;;;5092179;27;20324;-53
2022/07/15 06:49:29;;;;;;;;;;;16.50;99.90;;;;;;5125211;27;20451;-54
2022/07/15 06:52:09;;;;;;;;;;;16.40;99.90;;;;;;5125612;27;19912;-51
2022/07/15 06:54:48;;;;;;;;;;;16.40;99.90;;;;;;5126144;27;19912;-52
2022/07/15 06:57:28;;;;;;;;;;;16.40;99.90;;;;;;5107636;27;19916;-51
2022/07/15 07:00:11;;;;;;;;;;;16.50;99.90;;;;;;5125714;27;20384;-54
2022/07/15 07:02:53;;;;;;;;;;;16.40;99.90;;;;;;5125974;27;20257;-52
2022/07/15 07:05:32;;;;;;;;;;;16.50;99.90;;;;;;5103690;27;19926;-52
2022/07/15 07:08:12;;;;;;;;;;;16.70;99.90;;;;;;5125129;27;19918;-53
2022/07/15 07:10:52;;;;;;;;;;;16.90;99.90;;;;;;5125678;27;19912;-52
2022/07/15 07:13:32;;;;;;;;;;;17.00;99.90;;;;;;5125466;27;19918;-53
2022/07/15 07:16:12;;;;;;;;;;;17.20;99.90;;;;;;5097585;27;20427;-54
2022/07/15 07:18:52;;;;;;;;;;;17.50;99.90;;;;;;5076924;28;19913;-51
2022/07/15 07:21:32;;;;;;;;;;;17.90;99.90;;;;;;5101347;27;20324;-51
2022/07/15 07:24:13;;;;;;;;;;;18.40;99.90;;;;;;5125655;27;19953;-53
2022/07/15 07:26:53;;;;;;;;;;;18.90;99.90;;;;;;5145077;27;20304;-53
2022/07/15 07:29:33;;;;;;;;;;;19.40;99.90;;;;;;5105131;27;19926;-52
2022/07/15 07:32:12;;;;;;;;;;;19.80;99.90;;;;;;5125754;27;19912;-54
2022/07/15 07:34:52;;;;;;;;;;;19.90;99.90;;;;;;5125975;27;19912;-53
2022/07/15 07:37:35;;;;;;;;;;;20.00;99.90;;;;;;5085933;27;19919;-54
2022/07/15 07:40:16;;;;;;;;;;;20.40;99.90;;;;;;5125365;27;19916;-52
2022/07/15 07:42:57;;;;;;;;;;;20.80;99.90;;;;;;5125881;27;19911;-53
2022/07/15 07:45:36;;;;;;;;;;;21.10;99.90;;;;;;5103591;27;19912;-52
2022/07/15 07:48:17;;;;;;;;;;;21.10;99.90;;;;;;5124622;27;19913;-52
2022/07/15 07:50:58;;;;;;;;;;;21.10;99.90;;;;;;5104956;27;19912;-53
2022/07/15 07:53:37;;;;;;;;;;;20.90;99.90;;;;;;5125448;27;19935;-53
2022/07/15 07:56:17;;;;;;;;;;;20.80;99.90;;;;;;5124813;27;19926;-54
2022/07/15 07:58:57;;;;;;;;;;;20.50;99.90;;;;;;5125595;27;19912;-54
2022/07/15 08:01:37;;;;;;;;;;;20.30;99.90;;;;;;5084716;28;20325;-52
2022/07/15 08:04:17;;;;;;;;;;;20.20;99.90;;;;;;5125355;27;20276;-53
2022/07/15 08:06:56;;;;;;;;;;;20.20;93.50;;;;;;5091346;27;19930;-53
2022/07/15 08:09:36;;;;;;;;;;;20.10;92.00;;;;;;5126052;27;19915;-52
2022/07/15 08:12:16;;;;;;;;;;;20.10;98.40;;;;;;5125449;27;19912;-53
2022/07/15 08:14:56;;;;;;;;;;;20.30;93.10;;;;;;5105500;27;20319;-53
2022/07/15 08:17:36;;;;;;;;;;;20.40;88.00;;;;;;5119681;27;20388;-52
2022/07/15 08:20:16;;;;;;;;;;;20.50;90.00;;;;;;5125226;27;19912;-54
2022/07/15 08:22:58;;;;;;;;;;;20.80;81.40;;;;;;5125724;27;19911;-52
2022/07/15 08:25:39;;;;;;;;;;;21.00;83.50;;;;;;5122892;27;19942;-54
2022/07/15 08:28:19;;;;;;;;;;;21.20;85.70;;;;;;5104789;27;19946;-52
2022/07/15 08:30:58;;;;;;;;;;;21.20;81.20;;;;;;5125523;27;19916;-53
2022/07/15 08:33:38;;;;;;;;;;;21.20;77.10;;;;;;5125375;27;19912;-54
2022/07/15 08:36:18;;;;;;;;;;;21.40;72.20;;;;;;5096406;27;19926;-53
2022/07/15 08:38:57;;;;;;;;;;;21.90;72.50;;;;;;5084533;28;19912;-53
2022/07/15 08:41:37;;;;;;;;;;;22.30;68.00;;;;;;5125194;27;19912;-53
2022/07/15 08:44:17;;;;;;;;;;;22.20;64.60;;;;;;5125363;27;19912;-54
2022/07/15 08:46:58;;;;;;;;;;;22.40;66.40;;;;;;5111857;27;19961;-53
2022/07/15 08:49:40;;;;;;;;;;;22.70;63.40;;;;;;5105217;27;19930;-55
2022/07/15 08:52:20;;;;;;;;;;;23.00;57.00;;;;;;5105312;27;20434;-52
2022/07/15 08:55:00;;;;;;;;;;;23.10;56.80;;;;;;5125423;27;19912;-53
2022/07/15 08:57:40;;;;;;;;;;;22.90;56.20;;;;;;5146144;27;19925;-54
2022/07/15 09:00:19;;;;;;;;;;;22.80;55.60;;;;;;5105116;27;19912;-53
2022/07/15 09:03:00;;;;;;;;;;;23.00;57.00;;;;;;5125389;27;19912;-53
2022/07/15 09:05:41;;;;;;;;;;;23.20;56.90;;;;;;5125189;27;19912;-53
2022/07/15 09:08:20;;;;;;;;;;;23.00;57.10;;;;;;5104696;27;19926;-54
2022/07/15 09:11:00;;;;;;;;;;;23.00;57.80;;;;;;5125565;27;19919;-53
2022/07/15 09:13:43;;;;;;;;;;;23.20;57.30;;;;;;5125461;27;19918;-53
2022/07/15 09:16:23;;;;;;;;;;;23.20;56.90;;;;;;5116395;27;19918;-53
2022/07/15 09:19:03;;;;;;;;;;;23.20;56.00;;;;;;5125273;27;19912;-54
2022/07/15 09:21:44;;;;;;;;;;;23.30;55.10;;;;;;5125558;27;20373;-53
2022/07/15 09:24:24;;;;;;;;;;;23.20;56.70;;;;;;5105077;27;19954;-54
2022/07/15 09:27:24;;;;;;;;;;;23.00;54.80;;;;;;5090246;27;19954;-54
2022/07/15 09:36:14;;;;;;;;;;;23.40;54.90;;;;;;5097890;27;19916;-53
2022/07/15 09:38:55;;;;;;;;;;;23.30;55.30;;;;;;5125273;27;20409;-53
2022/07/15 09:41:36;;;;;;;;;;;23.50;54.40;;;;;;5125897;27;19919;-53
2022/07/15 09:44:17;;;;;;;;;;;23.10;54.10;;;;;;5125802;27;19916;-53
2022/07/15 09:46:59;;;;;;;;;;;22.90;56.90;;;;;;5121453;27;19912;-53
2022/07/15 09:49:39;;;;;;;;;;;23.00;56.90;;;;;;5146058;27;19921;-53
2022/07/15 09:52:19;;;;;;;;;;;23.20;56.10;;;;;;5125613;27;19912;-54
2022/07/15 09:54:59;;;;;;;;;;;23.30;55.80;;;;;;5146226;27;19918;-53
2022/07/15 09:57:39;;;;;;;;;;;23.30;56.50;;;;;;5144797;27;19911;-53
2022/07/15 10:00:19;;;;;;;;;;;23.20;54.00;;;;;;5125443;27;20344;-53
2022/07/15 10:02:59;;;;;;;;;;;23.30;55.10;;;;;;5125296;27;19943;-54
2022/07/15 10:05:40;;;;;;;;;;;23.40;53.30;;;;;;5123057;27;20229;-53
2022/07/15 10:08:20;;;;;;;;;;;23.30;53.00;;;;;;5103999;27;20434;-53
2022/07/15 10:11:00;;;;;;;;;;;23.40;52.00;;;;;;5125720;27;19915;-54
2022/07/15 10:13:53;;;;;;;;;;;23.30;51.20;;;;;;5146181;27;19911;-54
2022/07/15 10:16:47;;;;;;;;;;;22.90;51.20;;;;;;5124202;27;19924;-53
2022/07/15 10:19:31;;;;;;;;;;;22.60;52.50;;;;;;5106074;27;20433;-54
2022/07/15 10:22:17;;;;;;;;;;;22.50;53.60;;;;;;5125596;27;19930;-53
2022/07/15 10:25:12;;;;;;;;;;;22.50;54.80;;;;;;5104069;27;19938;-54
2022/07/15 10:28:01;;;;;;;;;;;23.10;52.30;;;;;;5103215;27;20294;-54
2022/07/15 10:30:42;;;;;;;;;;;23.50;53.70;;;;;;5125400;27;20377;-54
2022/07/15 10:33:22;;;;;;;;;;;23.90;55.50;;;;;;5123723;27;19920;-54
2022/07/15 10:36:06;;;;;;;;;;;24.20;51.80;;;;;;5119173;27;19916;-54
2022/07/15 10:39:01;;;;;;;;;;;24.40;50.20;;;;;;5124022;27;20385;-54
2022/07/15 10:41:51;;;;;;;;;;;24.40;48.20;;;;;;5124959;27;19920;-53
2022/07/15 10:44:33;;;;;;;;;;;24.30;48.60;;;;;;5084542;28;19923;-53
2022/07/15 10:47:20;;;;;;;;;;;24.40;49.10;;;;;;5083497;27;20471;-54
2022/07/15 10:50:00;;;;;;;;;;;25.10;47.80;;;;;;5125753;27;20334;-54
2022/07/15 10:52:40;;;;;;;;;;;26.00;45.10;;;;;;5128949;27;19915;-53
2022/07/15 10:55:21;;;;;;;;;;;26.50;44.10;;;;;;5125097;27;19919;-54
2022/07/15 10:58:03;;;;;;;;;;;26.40;43.60;;;;;;5124753;27;19916;-53
2022/07/15 11:00:44;;;;;;;;;;;25.80;43.90;;;;;;5105388;27;19912;-53
2022/07/15 11:03:25;;;;;;;;;;;25.60;44.90;;;;;;5125500;27;20369;-54
2022/07/15 11:06:06;;;;;;;;;;;25.30;44.40;;;;;;5124812;27;19922;-54
2022/07/15 11:08:51;;;;;;;;;;;24.90;47.80;;;;;;5104898;27;20351;-53
2022/07/15 11:11:50;;;;;;;;;;;25.00;44.80;;;;;;5125459;27;20397;-53
2022/07/15 11:14:45;;;;;;;;;;;25.20;45.70;;;;;;5120349;27;19918;-53
2022/07/15 11:17:26;;;;;;;;;;;25.40;44.60;;;;;;5107931;27;19913;-53
2022/07/15 11:20:09;;;;;;;;;;;25.90;45.40;;;;;;5125659;27;19911;-54
2022/07/15 11:22:50;;;;;;;;;;;26.70;43.00;;;;;;5126070;27;19911;-54
2022/07/15 11:25:32;;;;;;;;;;;27.00;42.10;;;;;;5124971;27;19911;-53
2022/07/15 11:28:14;;;;;;;;;;;27.10;45.20;;;;;;5124864;27;19918;-53
2022/07/15 11:30:55;;;;;;;;;;;26.30;42.50;;;;;;5104888;27;20324;-54
2022/07/15 11:33:36;;;;;;;;;;;24.80;44.50;;;;;;5087311;27;19916;-53
2022/07/15 11:36:21;;;;;;;;;;;24.20;46.80;;;;;;5096722;27;19913;-53
2022/07/15 11:39:01;;;;;;;;;;;24.10;47.70;;;;;;5103488;27;20336;-54
2022/07/15 11:44:49;;;;;;;;;;;24.20;47.30;;;;;;5140874;27;19922;-53
2022/07/15 11:47:29;;;;;;;;;;;25.00;46.40;;;;;;5120290;27;19912;-54
2022/07/15 11:50:09;;;;;;;;;;;26.00;43.90;;;;;;5124614;27;19916;-53
2022/07/15 11:52:50;;;;;;;;;;;26.50;43.10;;;;;;5104391;27;19950;-53
2022/07/15 11:55:30;;;;;;;;;;;26.60;41.40;;;;;;5125350;27;20320;-54
2022/07/15 11:58:10;;;;;;;;;;;26.30;43.20;;;;;;5124923;27;20556;-54
2022/07/15 12:00:50;;;;;;;;;;;25.60;43.60;;;;;;5146469;27;19922;-53
2022/07/15 12:03:37;;;;;;;;;;;24.80;44.40;;;;;;5124873;27;19916;-54
2022/07/15 12:06:18;;;;;;;;;;;24.30;44.90;;;;;;5097045;27;19946;-53
2022/07/15 12:09:00;;;;;;;;;;;24.50;46.20;;;;;;5104597;27;20174;-53
2022/07/15 12:11:40;;;;;;;;;;;24.50;45.10;;;;;;5125377;27;19916;-53
2022/07/15 12:14:21;;;;;;;;;;;24.30;46.30;;;;;;5125626;27;19916;-53
2022/07/15 12:17:02;;;;;;;;;;;24.00;46.40;;;;;;5120767;27;19912;-53
2022/07/15 12:19:46;;;;;;;;;;;23.40;46.80;;;;;;5105053;27;19954;-53
2022/07/15 12:22:26;;;;;;;;;;;22.90;46.50;;;;;;5125530;27;19922;-53
2022/07/15 12:25:06;;;;;;;;;;;22.70;48.70;;;;;;5125448;27;20432;-53
2022/07/15 12:27:48;;;;;;;;;;;23.00;49.60;;;;;;5124618;27;19920;-54
2022/07/15 12:30:37;;;;;;;;;;;23.40;47.00;;;;;;5125377;27;19912;-53
2022/07/15 12:33:21;;;;;;;;;;;23.80;46.80;;;;;;5125114;27;19916;-53
2022/07/15 12:36:14;;;;;;;;;;;24.60;43.80;;;;;;5124326;27;19912;-53
2022/07/15 12:39:08;;;;;;;;;;;25.40;41.90;;;;;;5125286;27;20281;-54
2022/07/15 12:41:58;;;;;;;;;;;25.90;42.20;;;;;;5125520;27;19911;-53
2022/07/15 12:44:39;;;;;;;;;;;25.80;42.10;;;;;;5104728;27;20345;-54
2022/07/15 12:47:19;;;;;;;;;;;25.60;42.20;;;;;;5087697;27;19916;-53
2022/07/15 12:49:59;;;;;;;;;;;25.20;42.60;;;;;;5125562;27;19922;-53
2022/07/15 12:52:41;;;;;;;;;;;25.00;44.20;;;;;;5105173;27;20409;-53
2022/07/15 12:55:22;;;;;;;;;;;24.70;41.60;;;;;;5125538;27;19916;-53
2022/07/15 12:58:07;;;;;;;;;;;24.40;42.90;;;;;;5104721;27;20222;-53
2022/07/15 13:00:47;;;;;;;;;;;24.70;42.40;;;;;;5125316;27;19916;-53
2022/07/15 13:03:27;;;;;;;;;;;25.00;41.20;;;;;;5125546;27;19915;-54
2022/07/15 13:06:08;;;;;;;;;;;25.50;40.90;;;;;;5125132;27;20191;-53
2022/07/15 13:08:48;;;;;;;;;;;25.40;41.10;;;;;;5105309;27;19930;-53
2022/07/15 13:11:28;;;;;;;;;;;25.10;42.70;;;;;;5104670;27;19938;-54
2022/07/15 13:14:08;;;;;;;;;;;25.00;42.10;;;;;;5125436;27;20267;-53
2022/07/15 13:16:48;;;;;;;;;;;24.40;42.50;;;;;;5092394;27;19919;-53
2022/07/15 13:19:28;;;;;;;;;;;23.90;44.50;;;;;;5065480;28;19913;-52
2022/07/15 13:22:08;;;;;;;;;;;23.80;44.60;;;;;;5116325;27;19924;-53
2022/07/15 13:24:47;;;;;;;;;;;23.40;44.40;;;;;;5118894;27;19916;-53
2022/07/15 13:27:27;;;;;;;;;;;23.10;45.50;;;;;;5123896;27;19922;-54
2022/07/15 13:30:08;;;;;;;;;;;22.90;44.60;;;;;;5124457;27;19918;-53
2022/07/15 13:32:49;;;;;;;;;;;22.90;44.30;;;;;;5098730;27;19958;-53
2022/07/15 13:35:30;;;;;;;;;;;23.20;44.50;;;;;;5119717;27;19920;-53
2022/07/15 13:38:10;;;;;;;;;;;23.80;45.20;;;;;;5120621;27;20328;-53
2022/07/15 13:40:50;;;;;;;;;;;24.50;41.70;;;;;;5124012;27;20373;-53
2022/07/15 13:43:30;;;;;;;;;;;25.00;42.90;;;;;;5119632;27;19915;-54
2022/07/15 13:46:10;;;;;;;;;;;25.30;41.40;;;;;;5133292;27;19920;-53
2022/07/15 13:48:49;;;;;;;;;;;25.00;40.20;;;;;;5124704;27;19912;-53
2022/07/15 13:51:29;;;;;;;;;;;24.50;41.00;;;;;;5105557;27;20360;-53
2022/07/15 13:54:09;;;;;;;;;;;24.50;42.50;;;;;;5125729;27;20437;-53
2022/07/15 13:56:50;;;;;;;;;;;24.90;41.50;;;;;;5112762;27;19912;-53
2022/07/15 13:59:30;;;;;;;;;;;25.30;41.30;;;;;;5125203;27;19916;-53
2022/07/15 14:02:10;;;;;;;;;;;26.20;41.10;;;;;;5116588;27;20323;-53
2022/07/15 14:04:50;;;;;;;;;;;27.00;38.20;;;;;;5082295;28;19928;-53
2022/07/15 14:07:30;;;;;;;;;;;27.50;37.40;;;;;;5116898;27;19912;-53
2022/07/15 14:10:10;;;;;;;;;;;27.50;37.60;;;;;;5115997;27;19916;-53
2022/07/15 14:12:51;;;;;;;;;;;26.40;38.40;;;;;;5104460;27;20276;-52
2022/07/15 14:15:31;;;;;;;;;;;25.80;39.60;;;;;;5070200;28;19930;-53
2022/07/15 14:18:10;;;;;;;;;;;26.00;41.30;;;;;;5105130;27;19927;-53
2022/07/15 14:20:50;;;;;;;;;;;25.60;39.30;;;;;;5125876;27;19911;-53
2022/07/15 14:23:30;;;;;;;;;;;25.00;40.30;;;;;;5125907;27;19911;-52
2022/07/15 14:26:11;;;;;;;;;;;24.60;41.10;;;;;;5097092;27;20431;-52
2022/07/15 14:28:52;;;;;;;;;;;24.40;41.00;;;;;;5125241;27;19931;-53
2022/07/15 14:31:31;;;;;;;;;;;24.30;42.60;;;;;;5084597;28;19921;-53
2022/07/15 14:34:13;;;;;;;;;;;24.40;41.40;;;;;;5125681;27;19919;-53
2022/07/15 14:36:53;;;;;;;;;;;24.80;40.90;;;;;;5135723;27;19912;-53
2022/07/15 14:39:32;;;;;;;;;;;25.60;40.10;;;;;;5116572;27;19926;-53
2022/07/15 14:42:12;;;;;;;;;;;26.20;38.00;;;;;;5095397;27;19981;-53
2022/07/15 14:44:52;;;;;;;;;;;26.00;39.00;;;;;;5103403;27;19957;-53
2022/07/15 14:47:32;;;;;;;;;;;25.90;39.90;;;;;;5106096;27;20394;-53
2022/07/15 14:50:12;;;;;;;;;;;26.00;37.80;;;;;;5123776;27;19915;-53
2022/07/15 14:52:51;;;;;;;;;;;26.20;41.00;;;;;;5104203;27;19912;-53
2022/07/15 14:55:31;;;;;;;;;;;26.70;36.90;;;;;;5123088;27;19915;-53
2022/07/15 14:58:12;;;;;;;;;;;26.90;37.00;;;;;;5112298;27;19916;-52
2022/07/15 15:00:53;;;;;;;;;;;27.00;36.20;;;;;;5107357;27;19916;-53
2022/07/15 15:03:32;;;;;;;;;;;27.10;35.60;;;;;;5123096;27;19915;-53
2022/07/15 15:06:12;;;;;;;;;;;26.40;36.10;;;;;;5117704;27;19923;-53
2022/07/15 15:08:52;;;;;;;;;;;26.00;38.30;;;;;;5083453;28;20558;-53
2022/07/15 15:11:32;;;;;;;;;;;25.60;39.70;;;;;;5104346;27;19926;-54
2022/07/15 15:14:12;;;;;;;;;;;25.20;39.00;;;;;;5105584;27;19926;-53
2022/07/15 15:16:52;;;;;;;;;;;25.00;41.20;;;;;;5092566;27;19913;-51
2022/07/15 15:19:31;;;;;;;;;;;25.00;40.50;;;;;;5106255;27;19912;-53
2022/07/15 15:22:11;;;;;;;;;;;25.00;40.00;;;;;;5126402;27;19912;-55
2022/07/15 15:24:51;;;;;;;;;;;25.00;40.20;;;;;;5087253;27;20328;-55
2022/07/15 15:27:31;;;;;;;;;;;25.30;40.00;;;;;;5104892;27;20294;-52
2022/07/15 15:30:11;;;;;;;;;;;25.80;40.60;;;;;;5126119;27;19912;-54
2022/07/15 15:32:53;;;;;;;;;;;26.00;38.20;;;;;;5125566;27;19911;-54
2022/07/15 15:35:34;;;;;;;;;;;25.50;39.20;;;;;;5145670;27;19918;-54
2022/07/15 15:38:13;;;;;;;;;;;26.40;37.90;;;;;;5104835;27;19945;-51
2022/07/15 15:40:55;;;;;;;;;;;27.80;36.70;;;;;;5136472;27;19911;-52
2022/07/15 15:43:36;;;;;;;;;;;27.10;35.30;;;;;;5105011;27;19958;-56
2022/07/15 15:46:16;;;;;;;;;;;26.20;37.20;;;;;;5117643;27;19915;-52
2022/07/15 15:48:56;;;;;;;;;;;27.40;36.80;;;;;;5086401;27;20416;-53
2022/07/15 15:51:38;;;;;;;;;;;29.00;38.90;;;;;;5117952;27;19919;-53
2022/07/15 15:54:17;;;;;;;;;;;30.70;33.90;;;;;;5126042;27;19922;-54